Airfield :
LOGIN :

Register | Disclaimer

   EN    FR    IT 

 










Legend :    VFR   Marginal VFR   IFR   Intensive IFR   Very Intensive IFR
Visi :
Ceiling :
>= 8 km
>= 3000ft
5 to 8 km
1000 to 3000 ft
1500m to 5 km
500 to 1000 ft
800 to 1500m
200 to 500 ft
< 800m
< 200 ft
Symbols :   Thunderstorms  Fog  Heavy snow  Heavy precipitations  Wind > 20 kt
SIGMETs :     Misc.  Thunderstorms  Icing  Turbulence  Mountain Waves  Volcanic Ashes







- Airport Elevation : 7 ft
- IATA code : POW


LJPZ - Portoroz

CURRENT METAR :
  • 160700Z 12005KT 9999 FEW020 05/02 Q1019

EXPIRED METARs :
  • 160630Z 15005KT 120V190 9999 FEW040 05/02 Q1019
  • 160600Z 12008KT CAVOK 05/02 Q1019
  • 160530Z 12007KT CAVOK 05/01 Q1019
  • 160500Z 12007KT CAVOK 05/02 Q1018
  • 160430Z AUTO 11007KT 9999 NSC 06/01 Q1018

TAF TAF LJPZ
Valid from the 16 at 06:00 until the 16 at 15:00 UTC


160500Z 1606/1615 12010KT CAVOK
BECMG 1607/1609 17005KT SCT045
BECMG 1609/1611 23010KT
TEMPO 1609/1612 BKN045
No reported NOTAMs for that airfield.



MET'MAP, your aeronautical weather chart ! - Copyright ORBIFLY December 2007 - Disclaimer

ORBIFLY MET'MAP TEAM :

Programming & Development : Alexandra Zaïnal
Concept & Development : Baudouin d'Aumeries
Co-Development & Prog : Marc-Olivier Méhu
Technical & hardware support : Manuel Goepfert

Contact : metmap@orbifly.com




SOURCES & CREDITS :

   NOAA